sensor_id;sensor_type;location;lat;lon;timestamp;pressure;altitude;pressure_sealevel;temperature;humidity
79006;BME280;69202;45.498;-73.582;2023-06-22T00:00:58;101509.53;;;26.03;33.80
79006;BME280;69202;45.498;-73.582;2023-06-22T00:03:25;101526.75;;;26.00;33.24
79006;BME280;69202;45.498;-73.582;2023-06-22T00:05:52;101485.00;;;25.71;33.57
79006;BME280;69202;45.498;-73.582;2023-06-22T00:08:19;101603.88;;;26.57;34.10
79006;BME280;69202;45.498;-73.582;2023-06-22T00:10:46;101552.22;;;26.02;34.17
79006;BME280;69202;45.498;-73.582;2023-06-22T00:13:12;101560.75;;;26.21;34.15
79006;BME280;69202;45.498;-73.582;2023-06-22T00:15:40;101426.09;;;25.35;34.72
79006;BME280;69202;45.498;-73.582;2023-06-22T00:18:07;101336.81;;;24.73;34.62
79006;BME280;69202;45.498;-73.582;2023-06-22T00:20:34;101405.97;;;25.03;34.36
79006;BME280;69202;45.498;-73.582;2023-06-22T00:23:03;101446.63;;;25.13;34.90
79006;BME280;69202;45.498;-73.582;2023-06-22T00:25:39;101483.41;;;25.39;34.83
79006;BME280;69202;45.498;-73.582;2023-06-22T00:28:14;101371.09;;;24.57;34.75
79006;BME280;69202;45.498;-73.582;2023-06-22T00:30:40;101397.09;;;24.91;34.95
79006;BME280;69202;45.498;-73.582;2023-06-22T00:33:06;101741.97;;;26.75;34.96
79006;BME280;69202;45.498;-73.582;2023-06-22T00:35:33;101617.94;;;26.06;34.91
79006;BME280;69202;45.498;-73.582;2023-06-22T00:38:00;101442.44;;;25.00;35.07
79006;BME280;69202;45.498;-73.582;2023-06-22T00:40:31;101457.09;;;25.01;35.13
79006;BME280;69202;45.498;-73.582;2023-06-22T00:42:58;101572.22;;;25.83;35.26
79006;BME280;69202;45.498;-73.582;2023-06-22T00:45:25;101523.81;;;25.40;35.52
79006;BME280;69202;45.498;-73.582;2023-06-22T00:47:52;101714.28;;;26.60;35.58
79006;BME280;69202;45.498;-73.582;2023-06-22T00:50:23;101385.19;;;24.35;35.65
79006;BME280;69202;45.498;-73.582;2023-06-22T00:52:52;101692.13;;;26.45;35.64
79006;BME280;69202;45.498;-73.582;2023-06-22T00:55:20;101249.09;;;23.51;35.98
79006;BME280;69202;45.498;-73.582;2023-06-22T00:57:47;101287.56;;;23.78;35.91
79006;BME280;69202;45.498;-73.582;2023-06-22T01:00:17;101530.19;;;25.20;35.79
79006;BME280;69202;45.498;-73.582;2023-06-22T01:02:45;101596.09;;;25.44;35.71
79006;BME280;69202;45.498;-73.582;2023-06-22T01:05:16;101541.53;;;25.09;35.83
79006;BME280;69202;45.498;-73.582;2023-06-22T01:10:35;101706.59;;;26.22;36.02
79006;BME280;69202;45.498;-73.582;2023-06-22T01:13:08;101623.78;;;25.54;36.05
79006;BME280;69202;45.498;-73.582;2023-06-22T01:15:40;101537.38;;;24.91;36.17
79006;BME280;69202;45.498;-73.582;2023-06-22T01:18:08;101391.78;;;24.08;36.17
79006;BME280;69202;45.498;-73.582;2023-06-22T01:20:36;101393.69;;;23.98;36.21
79006;BME280;69202;45.498;-73.582;2023-06-22T01:26:11;101755.09;;;26.24;36.36
79006;BME280;69202;45.498;-73.582;2023-06-22T01:28:46;101330.25;;;23.45;36.28
79006;BME280;69202;45.498;-73.582;2023-06-22T01:31:19;101620.47;;;25.37;36.30
79006;BME280;69202;45.498;-73.582;2023-06-22T01:33:50;101756.25;;;26.18;36.10
79006;BME280;69202;45.498;-73.582;2023-06-22T01:36:16;101650.91;;;25.42;35.73
79006;BME280;69202;45.498;-73.582;2023-06-22T01:38:43;101562.22;;;24.60;36.12
79006;BME280;69202;45.498;-73.582;2023-06-22T01:41:11;101530.41;;;24.68;36.27
79006;BME280;69202;45.498;-73.582;2023-06-22T01:43:38;101586.88;;;24.87;36.37
79006;BME280;69202;45.498;-73.582;2023-06-22T01:46:05;101412.97;;;23.82;36.16
79006;BME280;69202;45.498;-73.582;2023-06-22T01:48:31;101368.66;;;23.57;36.22
79006;BME280;69202;45.498;-73.582;2023-06-22T01:50:57;101461.69;;;24.09;36.04
79006;BME280;69202;45.498;-73.582;2023-06-22T01:53:24;101611.31;;;25.16;36.10
79006;BME280;69202;45.498;-73.582;2023-06-22T01:55:50;101697.72;;;25.63;36.21
79006;BME280;69202;45.498;-73.582;2023-06-22T01:58:16;101760.13;;;25.92;36.30
79006;BME280;69202;45.498;-73.582;2023-06-22T02:00:51;101699.13;;;25.61;36.26
79006;BME280;69202;45.498;-73.582;2023-06-22T02:03:22;101622.38;;;25.21;36.42
79006;BME280;69202;45.498;-73.582;2023-06-22T02:06:25;101760.41;;;26.10;36.27
79006;BME280;69202;45.498;-73.582;2023-06-22T02:09:00;101457.00;;;24.14;36.34
79006;BME280;69202;45.498;-73.582;2023-06-22T02:11:28;101387.75;;;23.64;36.30
79006;BME280;69202;45.498;-73.582;2023-06-22T02:13:56;101390.25;;;23.65;36.56
79006;BME280;69202;45.498;-73.582;2023-06-22T02:16:23;101634.56;;;25.15;36.35
79006;BME280;69202;45.498;-73.582;2023-06-22T02:18:51;101597.47;;;25.16;36.51
79006;BME280;69202;45.498;-73.582;2023-06-22T02:21:20;101643.69;;;25.30;36.20
79006;BME280;69202;45.498;-73.582;2023-06-22T02:23:47;101636.22;;;25.26;36.33
79006;BME280;69202;45.498;-73.582;2023-06-22T02:26:13;101566.69;;;24.97;36.54
79006;BME280;69202;45.498;-73.582;2023-06-22T02:28:39;101579.97;;;24.90;36.49
79006;BME280;69202;45.498;-73.582;2023-06-22T02:31:05;101394.97;;;23.70;36.57
79006;BME280;69202;45.498;-73.582;2023-06-22T02:33:31;101342.69;;;23.53;36.43
79006;BME280;69202;45.498;-73.582;2023-06-22T02:35:57;101629.84;;;25.15;36.23
79006;BME280;69202;45.498;-73.582;2023-06-22T02:38:23;101620.38;;;24.96;36.18
79006;BME280;69202;45.498;-73.582;2023-06-22T02:40:50;101517.34;;;24.33;36.21
79006;BME280;69202;45.498;-73.582;2023-06-22T02:43:16;101563.91;;;24.82;36.45
79006;BME280;69202;45.498;-73.582;2023-06-22T02:45:42;101721.34;;;25.76;36.08
79006;BME280;69202;45.498;-73.582;2023-06-22T02:48:08;101516.56;;;24.58;35.75
79006;BME280;69202;45.498;-73.582;2023-06-22T02:50:34;101339.06;;;23.42;36.32
79006;BME280;69202;45.498;-73.582;2023-06-22T02:53:03;101427.09;;;23.96;35.93
79006;BME280;69202;45.498;-73.582;2023-06-22T02:55:32;101381.66;;;23.56;36.21
79006;BME280;69202;45.498;-73.582;2023-06-22T02:57:58;101537.53;;;24.43;36.02
79006;BME280;69202;45.498;-73.582;2023-06-22T03:00:25;101423.16;;;23.72;36.17
79006;BME280;69202;45.498;-73.582;2023-06-22T03:02:56;101352.84;;;23.42;36.19
79006;BME280;69202;45.498;-73.582;2023-06-22T03:05:23;101436.72;;;23.78;35.90
79006;BME280;69202;45.498;-73.582;2023-06-22T03:07:49;101400.81;;;23.78;35.83
79006;BME280;69202;45.498;-73.582;2023-06-22T03:10:15;101517.13;;;24.50;36.08
79006;BME280;69202;45.498;-73.582;2023-06-22T03:12:42;101418.53;;;23.93;35.77
79006;BME280;69202;45.498;-73.582;2023-06-22T03:15:10;101507.84;;;24.13;35.64
79006;BME280;69202;45.498;-73.582;2023-06-22T03:17:40;101634.28;;;25.06;35.74
79006;BME280;69202;45.498;-73.582;2023-06-22T03:20:07;101676.66;;;25.37;35.77
79006;BME280;69202;45.498;-73.582;2023-06-22T03:22:38;101450.47;;;23.73;35.92
79006;BME280;69202;45.498;-73.582;2023-06-22T03:25:05;101412.59;;;23.58;35.90
79006;BME280;69202;45.498;-73.582;2023-06-22T03:27:40;101665.56;;;25.17;35.78
79006;BME280;69202;45.498;-73.582;2023-06-22T03:30:08;101676.66;;;25.32;36.39
79006;BME280;69202;45.498;-73.582;2023-06-22T03:32:34;101560.00;;;24.62;36.14
79006;BME280;69202;45.498;-73.582;2023-06-22T03:35:00;101488.50;;;24.13;36.48
79006;BME280;69202;45.498;-73.582;2023-06-22T03:37:27;101602.31;;;24.68;36.07
79006;BME280;69202;45.498;-73.582;2023-06-22T03:39:54;101557.41;;;24.35;36.20
79006;BME280;69202;45.498;-73.582;2023-06-22T03:42:23;101448.03;;;23.77;36.38
79006;BME280;69202;45.498;-73.582;2023-06-22T03:44:49;101506.66;;;23.94;36.62
79006;BME280;69202;45.498;-73.582;2023-06-22T03:47:18;101503.97;;;24.09;36.67
79006;BME280;69202;45.498;-73.582;2023-06-22T03:49:46;101560.22;;;24.45;37.18
79006;BME280;69202;45.498;-73.582;2023-06-22T03:52:12;101530.44;;;24.00;37.32
79006;BME280;69202;45.498;-73.582;2023-06-22T03:54:38;101331.34;;;22.92;37.33
79006;BME280;69202;45.498;-73.582;2023-06-22T03:57:04;101557.91;;;24.22;37.44
79006;BME280;69202;45.498;-73.582;2023-06-22T03:59:31;101335.53;;;22.94;37.57
79006;BME280;69202;45.498;-73.582;2023-06-22T04:01:58;101646.56;;;24.63;37.59
79006;BME280;69202;45.498;-73.582;2023-06-22T04:04:25;101537.31;;;23.93;37.80
79006;BME280;69202;45.498;-73.582;2023-06-22T04:06:51;101463.44;;;23.68;37.94
79006;BME280;69202;45.498;-73.582;2023-06-22T04:09:19;101512.16;;;23.89;37.98
79006;BME280;69202;45.498;-73.582;2023-06-22T04:11:47;101584.66;;;24.16;38.36
79006;BME280;69202;45.498;-73.582;2023-06-22T04:14:13;101483.22;;;23.54;38.46
79006;BME280;69202;45.498;-73.582;2023-06-22T04:16:39;101597.38;;;24.12;38.50
79006;BME280;69202;45.498;-73.582;2023-06-22T04:19:05;101583.28;;;24.14;38.80
79006;BME280;69202;45.498;-73.582;2023-06-22T04:21:31;101392.91;;;22.97;38.86
79006;BME280;69202;45.498;-73.582;2023-06-22T04:23:57;101376.47;;;22.81;38.53
79006;BME280;69202;45.498;-73.582;2023-06-22T04:26:23;101661.78;;;24.65;38.47
79006;BME280;69202;45.498;-73.582;2023-06-22T04:28:49;101531.38;;;23.69;38.45
79006;BME280;69202;45.498;-73.582;2023-06-22T04:31:19;101368.66;;;22.67;37.86
79006;BME280;69202;45.498;-73.582;2023-06-22T04:33:45;101349.41;;;22.72;38.77
79006;BME280;69202;45.498;-73.582;2023-06-22T04:36:11;101351.28;;;22.62;38.93
79006;BME280;69202;45.498;-73.582;2023-06-22T04:38:40;101786.53;;;25.21;38.58
79006;BME280;69202;45.498;-73.582;2023-06-22T04:41:12;101505.28;;;23.49;38.50
79006;BME280;69202;45.498;-73.582;2023-06-22T04:43:39;101603.44;;;24.09;38.42
79006;BME280;69202;45.498;-73.582;2023-06-22T04:46:08;101278.50;;;22.26;38.76
79006;BME280;69202;45.498;-73.582;2023-06-22T04:48:34;101384.84;;;22.91;38.63
79006;BME280;69202;45.498;-73.582;2023-06-22T04:51:01;101532.72;;;23.61;38.98
79006;BME280;69202;45.498;-73.582;2023-06-22T04:53:30;101758.53;;;25.08;39.06
79006;BME280;69202;45.498;-73.582;2023-06-22T04:55:56;101492.72;;;23.26;39.14
79006;BME280;69202;45.498;-73.582;2023-06-22T04:58:22;101500.78;;;23.38;39.66
79006;BME280;69202;45.498;-73.582;2023-06-22T05:00:48;101585.28;;;23.76;39.16
79006;BME280;69202;45.498;-73.582;2023-06-22T05:03:17;101751.09;;;24.61;39.52
79006;BME280;69202;45.498;-73.582;2023-06-22T05:05:46;101482.19;;;23.23;39.56
79006;BME280;69202;45.498;-73.582;2023-06-22T05:08:15;101494.13;;;22.97;39.83
79006;BME280;69202;45.498;-73.582;2023-06-22T05:10:41;101474.47;;;22.88;39.54
79006;BME280;69202;45.498;-73.582;2023-06-22T05:13:07;101392.03;;;22.28;40.29
79006;BME280;69202;45.498;-73.582;2023-06-22T05:15:33;101527.13;;;23.19;40.51
79006;BME280;69202;45.498;-73.582;2023-06-22T05:18:02;101330.13;;;22.08;40.05
79006;BME280;69202;45.498;-73.582;2023-06-22T05:20:33;101340.09;;;22.14;40.75
79006;BME280;69202;45.498;-73.582;2023-06-22T05:23:04;101519.13;;;23.17;41.04
79006;BME280;69202;45.498;-73.582;2023-06-22T05:25:30;101591.66;;;23.77;41.46
79006;BME280;69202;45.498;-73.582;2023-06-22T05:27:58;101597.31;;;23.60;41.34
79006;BME280;69202;45.498;-73.582;2023-06-22T05:30:24;101397.06;;;22.36;41.92
79006;BME280;69202;45.498;-73.582;2023-06-22T05:32:49;101384.47;;;22.18;41.89
79006;BME280;69202;45.498;-73.582;2023-06-22T05:35:16;101754.69;;;24.61;41.83
79006;BME280;69202;45.498;-73.582;2023-06-22T05:37:42;101362.34;;;22.08;42.32
79006;BME280;69202;45.498;-73.582;2023-06-22T05:40:09;101373.00;;;22.26;42.33
79006;BME280;69202;45.498;-73.582;2023-06-22T05:42:35;101331.22;;;22.07;42.86
79006;BME280;69202;45.498;-73.582;2023-06-22T05:45:01;101333.00;;;21.97;42.69
79006;BME280;69202;45.498;-73.582;2023-06-22T05:47:27;101418.91;;;22.42;42.33
79006;BME280;69202;45.498;-73.582;2023-06-22T05:49:53;101556.59;;;23.45;42.70
79006;BME280;69202;45.498;-73.582;2023-06-22T05:52:19;101615.28;;;23.63;42.78
79006;BME280;69202;45.498;-73.582;2023-06-22T05:54:48;101607.72;;;23.53;43.22
79006;BME280;69202;45.498;-73.582;2023-06-22T05:57:16;101499.28;;;22.88;43.07
79006;BME280;69202;45.498;-73.582;2023-06-22T05:59:42;101452.66;;;22.60;43.53
79006;BME280;69202;45.498;-73.582;2023-06-22T06:02:08;101556.28;;;23.42;43.43
79006;BME280;69202;45.498;-73.582;2023-06-22T06:04:34;101358.56;;;22.14;43.67
79006;BME280;69202;45.498;-73.582;2023-06-22T06:07:01;101371.44;;;22.08;43.36
79006;BME280;69202;45.498;-73.582;2023-06-22T06:09:27;101391.19;;;22.27;43.45
79006;BME280;69202;45.498;-73.582;2023-06-22T06:11:53;101395.03;;;22.26;43.52
79006;BME280;69202;45.498;-73.582;2023-06-22T06:14:19;101534.75;;;23.07;43.72
79006;BME280;69202;45.498;-73.582;2023-06-22T06:16:45;101366.38;;;22.22;44.01
79006;BME280;69202;45.498;-73.582;2023-06-22T06:19:11;101426.53;;;22.35;44.10
79006;BME280;69202;45.498;-73.582;2023-06-22T06:21:37;101340.06;;;21.87;43.94
79006;BME280;69202;45.498;-73.582;2023-06-22T06:24:03;101374.06;;;22.20;44.01
79006;BME280;69202;45.498;-73.582;2023-06-22T06:26:30;101481.91;;;22.88;44.37
79006;BME280;69202;45.498;-73.582;2023-06-22T06:29:00;101428.09;;;22.53;44.71
79006;BME280;69202;45.498;-73.582;2023-06-22T06:31:27;101331.50;;;21.84;45.09
79006;BME280;69202;45.498;-73.582;2023-06-22T06:33:54;101526.97;;;22.98;45.27
79006;BME280;69202;45.498;-73.582;2023-06-22T06:36:23;101566.97;;;23.01;45.22
79006;BME280;69202;45.498;-73.582;2023-06-22T06:38:49;101744.88;;;24.06;45.76
79006;BME280;69202;45.498;-73.582;2023-06-22T06:41:16;101562.47;;;22.90;45.73
79006;BME280;69202;45.498;-73.582;2023-06-22T06:43:42;101597.03;;;22.97;45.82
79006;BME280;69202;45.498;-73.582;2023-06-22T06:46:09;101369.25;;;21.61;46.19
79006;BME280;69202;45.498;-73.582;2023-06-22T06:48:40;101614.78;;;23.07;46.20
79006;BME280;69202;45.498;-73.582;2023-06-22T06:51:06;101328.09;;;21.50;46.20
79006;BME280;69202;45.498;-73.582;2023-06-22T06:53:36;101415.91;;;21.73;46.60
79006;BME280;69202;45.498;-73.582;2023-06-22T06:56:04;101413.94;;;21.69;46.56
79006;BME280;69202;45.498;-73.582;2023-06-22T06:58:31;101499.09;;;22.41;46.41
79006;BME280;69202;45.498;-73.582;2023-06-22T07:00:57;101303.34;;;21.06;46.85
79006;BME280;69202;45.498;-73.582;2023-06-22T07:03:23;101531.69;;;22.49;47.00
79006;BME280;69202;45.498;-73.582;2023-06-22T07:05:51;101590.88;;;22.90;46.77
79006;BME280;69202;45.498;-73.582;2023-06-22T07:08:19;101442.72;;;21.83;46.83
79006;BME280;69202;45.498;-73.582;2023-06-22T07:10:49;101314.06;;;21.08;46.83
79006;BME280;69202;45.498;-73.582;2023-06-22T07:13:17;101295.66;;;21.08;47.08
79006;BME280;69202;45.498;-73.582;2023-06-22T07:15:43;101558.47;;;22.54;47.28
79006;BME280;69202;45.498;-73.582;2023-06-22T07:18:09;101454.44;;;21.95;47.27
79006;BME280;69202;45.498;-73.582;2023-06-22T07:20:38;101324.13;;;21.19;47.61
79006;BME280;69202;45.498;-73.582;2023-06-22T07:23:07;101520.41;;;22.29;48.02
79006;BME280;69202;45.498;-73.582;2023-06-22T07:25:33;101506.44;;;21.92;48.62
79006;BME280;69202;45.498;-73.582;2023-06-22T07:28:05;101321.88;;;20.77;48.41
79006;BME280;69202;45.498;-73.582;2023-06-22T07:30:32;101724.47;;;23.48;48.29
79006;BME280;69202;45.498;-73.582;2023-06-22T07:32:58;101586.09;;;22.59;48.38
79006;BME280;69202;45.498;-73.582;2023-06-22T07:35:29;101472.63;;;21.74;48.47
79006;BME280;69202;45.498;-73.582;2023-06-22T07:38:00;101587.72;;;22.55;48.47
79006;BME280;69202;45.498;-73.582;2023-06-22T07:40:28;101501.38;;;22.05;48.36
79006;BME280;69202;45.498;-73.582;2023-06-22T07:42:55;101661.56;;;22.96;48.70
79006;BME280;69202;45.498;-73.582;2023-06-22T07:45:21;101490.81;;;21.75;48.76
79006;BME280;69202;45.498;-73.582;2023-06-22T07:47:47;101340.94;;;20.84;48.65
79006;BME280;69202;45.498;-73.582;2023-06-22T07:50:16;101442.47;;;21.63;48.67
79006;BME280;69202;45.498;-73.582;2023-06-22T07:52:44;101469.88;;;21.74;49.12
79006;BME280;69202;45.498;-73.582;2023-06-22T07:55:11;101441.50;;;21.52;49.23
79006;BME280;69202;45.498;-73.582;2023-06-22T07:57:37;101398.56;;;21.29;49.15
79006;BME280;69202;45.498;-73.582;2023-06-22T08:00:05;101278.44;;;20.57;49.08
79006;BME280;69202;45.498;-73.582;2023-06-22T08:02:42;101542.59;;;22.17;49.21
79006;BME280;69202;45.498;-73.582;2023-06-22T08:05:09;101331.38;;;20.86;49.90
79006;BME280;69202;45.498;-73.582;2023-06-22T08:07:35;101607.25;;;22.53;49.62
79006;BME280;69202;45.498;-73.582;2023-06-22T08:10:12;101273.19;;;20.39;49.72
79006;BME280;69202;45.498;-73.582;2023-06-22T08:12:42;101679.06;;;22.63;49.90
79006;BME280;69202;45.498;-73.582;2023-06-22T08:15:08;101557.75;;;21.98;49.73
79006;BME280;69202;45.498;-73.582;2023-06-22T08:17:37;101673.69;;;22.73;49.93
79006;BME280;69202;45.498;-73.582;2023-06-22T08:20:06;101492.91;;;21.29;50.39
79006;BME280;69202;45.498;-73.582;2023-06-22T08:22:37;101572.34;;;21.98;50.55
79006;BME280;69202;45.498;-73.582;2023-06-22T08:25:04;101605.31;;;21.93;50.61
79006;BME280;69202;45.498;-73.582;2023-06-22T08:27:30;101554.22;;;21.64;50.70
79006;BME280;69202;45.498;-73.582;2023-06-22T08:30:00;101456.66;;;20.99;50.55
79006;BME280;69202;45.498;-73.582;2023-06-22T08:32:29;101732.69;;;22.72;50.80
79006;BME280;69202;45.498;-73.582;2023-06-22T08:34:57;101493.31;;;21.21;50.62
79006;BME280;69202;45.498;-73.582;2023-06-22T08:37:23;101667.13;;;22.36;50.86
79006;BME280;69202;45.498;-73.582;2023-06-22T08:39:57;101639.09;;;22.05;50.74
79006;BME280;69202;45.498;-73.582;2023-06-22T08:42:23;101454.78;;;21.04;50.45
79006;BME280;69202;45.498;-73.582;2023-06-22T08:44:50;101357.00;;;20.25;50.85
79006;BME280;69202;45.498;-73.582;2023-06-22T08:47:16;101352.34;;;20.42;50.88
79006;BME280;69202;45.498;-73.582;2023-06-22T08:49:47;101377.06;;;20.42;50.78
79006;BME280;69202;45.498;-73.582;2023-06-22T08:52:13;101540.63;;;21.23;50.69
79006;BME280;69202;45.498;-73.582;2023-06-22T08:54:39;101515.47;;;21.15;51.01
79006;BME280;69202;45.498;-73.582;2023-06-22T08:57:05;101745.22;;;22.63;51.19
79006;BME280;69202;45.498;-73.582;2023-06-22T08:59:31;101594.84;;;21.56;50.99
79006;BME280;69202;45.498;-73.582;2023-06-22T09:01:57;101505.81;;;21.12;51.09
79006;BME280;69202;45.498;-73.582;2023-06-22T09:04:27;101381.13;;;20.23;51.28
79006;BME280;69202;45.498;-73.582;2023-06-22T09:06:55;101616.88;;;21.56;51.05
79006;BME280;69202;45.498;-73.582;2023-06-22T09:09:21;101527.16;;;21.05;51.23
79006;BME280;69202;45.498;-73.582;2023-06-22T09:11:48;101486.81;;;20.77;51.19
79006;BME280;69202;45.498;-73.582;2023-06-22T09:14:16;101649.16;;;21.61;51.51
79006;BME280;69202;45.498;-73.582;2023-06-22T09:16:42;101412.69;;;20.37;51.70
79006;BME280;69202;45.498;-73.582;2023-06-22T09:19:11;101523.22;;;20.84;51.72
79006;BME280;69202;45.498;-73.582;2023-06-22T09:21:40;101491.63;;;20.70;51.60
79006;BME280;69202;45.498;-73.582;2023-06-22T09:24:15;101647.25;;;21.78;51.49
79006;BME280;69202;45.498;-73.582;2023-06-22T09:26:41;101378.41;;;19.94;51.93
79006;BME280;69202;45.498;-73.582;2023-06-22T09:29:07;101575.56;;;21.06;51.71
79006;BME280;69202;45.498;-73.582;2023-06-22T09:31:36;101569.16;;;21.17;51.92
79006;BME280;69202;45.498;-73.582;2023-06-22T09:34:02;101455.97;;;20.58;51.69
79006;BME280;69202;45.498;-73.582;2023-06-22T09:36:28;101604.03;;;21.45;51.91
79006;BME280;69202;45.498;-73.582;2023-06-22T09:38:57;101589.00;;;21.36;51.84
79006;BME280;69202;45.498;-73.582;2023-06-22T09:41:24;101552.13;;;21.03;51.74
79006;BME280;69202;45.498;-73.582;2023-06-22T09:43:50;101514.19;;;20.72;51.48
79006;BME280;69202;45.498;-73.582;2023-06-22T09:46:17;101733.25;;;22.19;51.65
79006;BME280;69202;45.498;-73.582;2023-06-22T09:48:43;101400.75;;;19.86;51.87
79006;BME280;69202;45.498;-73.582;2023-06-22T09:51:09;101288.75;;;19.43;51.85
79006;BME280;69202;45.498;-73.582;2023-06-22T09:53:35;101413.41;;;20.15;51.95
79006;BME280;69202;45.498;-73.582;2023-06-22T09:56:03;101511.44;;;20.72;52.14
79006;BME280;69202;45.498;-73.582;2023-06-22T09:58:29;101553.50;;;20.72;52.00
79006;BME280;69202;45.498;-73.582;2023-06-22T10:00:55;101761.81;;;22.30;52.05
79006;BME280;69202;45.498;-73.582;2023-06-22T10:03:21;101549.50;;;20.80;52.07
79006;BME280;69202;45.498;-73.582;2023-06-22T10:05:49;101390.03;;;19.84;52.09
79006;BME280;69202;45.498;-73.582;2023-06-22T10:08:17;101604.16;;;21.05;52.11
79006;BME280;69202;45.498;-73.582;2023-06-22T10:10:43;101623.41;;;21.22;52.44
79006;BME280;69202;45.498;-73.582;2023-06-22T10:13:10;101405.88;;;20.11;52.29
79006;BME280;69202;45.498;-73.582;2023-06-22T10:15:36;101565.88;;;21.03;52.27
79006;BME280;69202;45.498;-73.582;2023-06-22T10:18:03;101555.00;;;20.80;52.19
79006;BME280;69202;45.498;-73.582;2023-06-22T10:20:29;101461.03;;;20.09;52.19
79006;BME280;69202;45.498;-73.582;2023-06-22T10:22:58;101511.75;;;20.59;52.03
79006;BME280;69202;45.498;-73.582;2023-06-22T10:25:24;101633.56;;;21.50;52.31
79006;BME280;69202;45.498;-73.582;2023-06-22T10:27:50;101618.53;;;21.41;52.23
79006;BME280;69202;45.498;-73.582;2023-06-22T10:30:17;101457.25;;;19.99;52.33
79006;BME280;69202;45.498;-73.582;2023-06-22T10:32:43;101645.47;;;21.55;52.32
79006;BME280;69202;45.498;-73.582;2023-06-22T10:35:12;101447.72;;;20.30;52.62
79006;BME280;69202;45.498;-73.582;2023-06-22T10:37:42;101485.50;;;20.51;52.27
79006;BME280;69202;45.498;-73.582;2023-06-22T10:40:09;101389.31;;;20.06;52.11
79006;BME280;69202;45.498;-73.582;2023-06-22T10:42:35;101597.88;;;21.38;52.16
79006;BME280;69202;45.498;-73.582;2023-06-22T10:45:01;101510.53;;;20.83;51.73
79006;BME280;69202;45.498;-73.582;2023-06-22T10:47:28;101531.22;;;20.86;51.58
79006;BME280;69202;45.498;-73.582;2023-06-22T10:49:54;101558.47;;;21.21;51.56
79006;BME280;69202;45.498;-73.582;2023-06-22T10:52:20;101735.44;;;22.34;51.54
79006;BME280;69202;45.498;-73.582;2023-06-22T10:54:48;101670.28;;;21.89;51.23
79006;BME280;69202;45.498;-73.582;2023-06-22T10:57:14;101604.84;;;21.46;50.60
79006;BME280;69202;45.498;-73.582;2023-06-22T10:59:40;101638.66;;;21.58;50.86
79006;BME280;69202;45.498;-73.582;2023-06-22T11:02:06;101537.56;;;21.20;50.80
79006;BME280;69202;45.498;-73.582;2023-06-22T11:04:35;101663.00;;;21.83;50.69
79006;BME280;69202;45.498;-73.582;2023-06-22T11:07:01;101807.97;;;22.73;50.57
79006;BME280;69202;45.498;-73.582;2023-06-22T11:09:27;101421.84;;;20.54;50.89
79006;BME280;69202;45.498;-73.582;2023-06-22T11:11:53;101633.53;;;21.83;51.08
79006;BME280;69202;45.498;-73.582;2023-06-22T11:14:22;101650.84;;;21.79;51.13
79006;BME280;69202;45.498;-73.582;2023-06-22T11:16:48;101446.06;;;20.57;51.17
79006;BME280;69202;45.498;-73.582;2023-06-22T11:19:14;101404.84;;;20.00;51.54
79006;BME280;69202;45.498;-73.582;2023-06-22T11:21:40;101547.97;;;21.01;51.26
79006;BME280;69202;45.498;-73.582;2023-06-22T11:24:06;101718.81;;;22.29;51.10
79006;BME280;69202;45.498;-73.582;2023-06-22T11:26:33;101739.50;;;22.48;51.05
79006;BME280;69202;45.498;-73.582;2023-06-22T11:28:59;101793.50;;;22.66;51.31
79006;BME280;69202;45.498;-73.582;2023-06-22T11:31:25;101727.34;;;22.27;51.01
79006;BME280;69202;45.498;-73.582;2023-06-22T11:33:51;101800.06;;;22.82;50.76
79006;BME280;69202;45.498;-73.582;2023-06-22T11:36:17;101778.94;;;22.70;50.58
79006;BME280;69202;45.498;-73.582;2023-06-22T11:38:43;101744.25;;;22.53;50.35
79006;BME280;69202;45.498;-73.582;2023-06-22T11:41:10;101706.38;;;22.26;50.62
79006;BME280;69202;45.498;-73.582;2023-06-22T11:43:36;101629.88;;;21.78;50.66
79006;BME280;69202;45.498;-73.582;2023-06-22T11:46:03;101661.31;;;22.15;50.98
79006;BME280;69202;45.498;-73.582;2023-06-22T11:48:29;101505.91;;;21.17;50.27
79006;BME280;69202;45.498;-73.582;2023-06-22T11:50:56;101665.16;;;21.98;50.56
79006;BME280;69202;45.498;-73.582;2023-06-22T11:53:24;101730.63;;;22.63;50.22
79006;BME280;69202;45.498;-73.582;2023-06-22T11:55:50;101670.81;;;22.25;50.57
79006;BME280;69202;45.498;-73.582;2023-06-22T11:58:16;101636.25;;;22.17;50.35
79006;BME280;69202;45.498;-73.582;2023-06-22T12:00:42;101561.09;;;21.61;50.54
79006;BME280;69202;45.498;-73.582;2023-06-22T12:03:08;101710.78;;;22.44;50.83
79006;BME280;69202;45.498;-73.582;2023-06-22T12:05:35;101439.91;;;20.67;50.55
79006;BME280;69202;45.498;-73.582;2023-06-22T12:08:01;101458.06;;;21.01;50.36
79006;BME280;69202;45.498;-73.582;2023-06-22T12:10:27;101540.41;;;21.58;50.63
79006;BME280;69202;45.498;-73.582;2023-06-22T12:12:55;101444.22;;;21.13;50.24
79006;BME280;69202;45.498;-73.582;2023-06-22T12:15:23;101417.69;;;20.85;50.57
79006;BME280;69202;45.498;-73.582;2023-06-22T12:17:49;101599.09;;;22.19;50.06
79006;BME280;69202;45.498;-73.582;2023-06-22T12:20:15;101701.94;;;22.64;50.28
79006;BME280;69202;45.498;-73.582;2023-06-22T12:22:42;101798.81;;;23.33;50.26
79006;BME280;69202;45.498;-73.582;2023-06-22T12:25:08;101807.44;;;23.58;49.80
79006;BME280;69202;45.498;-73.582;2023-06-22T12:27:35;101586.50;;;22.24;49.25
79006;BME280;69202;45.498;-73.582;2023-06-22T12:30:01;101793.41;;;23.65;49.49
79006;BME280;69202;45.498;-73.582;2023-06-22T12:32:28;101638.09;;;22.72;49.68
79006;BME280;69202;45.498;-73.582;2023-06-22T12:34:54;101698.06;;;23.03;49.62
79006;BME280;69202;45.498;-73.582;2023-06-22T12:37:23;101749.69;;;23.57;49.36